createdAt,value
2023-05-08T00:01:22.618Z,7.03
2023-05-08T00:03:52.970Z,5.82
2023-05-08T00:06:21.449Z,5.97
2023-05-08T00:08:52.474Z,5.60
2023-05-08T00:11:20.992Z,5.60
2023-05-08T00:13:50.613Z,5.70
2023-05-08T00:16:18.907Z,5.93
2023-05-08T00:18:47.984Z,5.75
2023-05-08T00:21:17.166Z,6.13
2023-05-08T00:23:45.950Z,5.93
2023-05-08T00:26:15.117Z,6.13
2023-05-08T00:28:43.151Z,6.40
2023-05-08T00:31:14.358Z,5.88
2023-05-08T00:33:45.290Z,6.40
2023-05-08T00:36:15.976Z,6.05
2023-05-08T00:38:46.193Z,6.40
2023-05-08T00:41:16.553Z,5.90
2023-05-08T00:43:45.204Z,5.50
2023-05-08T00:46:16.512Z,5.85
2023-05-08T00:48:47.174Z,6.13
2023-05-08T00:51:16.585Z,6.38
2023-05-08T00:53:45.514Z,7.18
2023-05-08T00:56:15.362Z,6.05
2023-05-08T00:58:48.492Z,7.05
2023-05-08T01:01:19.304Z,6.45
2023-05-08T01:03:48.185Z,6.13
2023-05-08T01:06:17.471Z,7.13
2023-05-08T01:08:46.649Z,6.32
2023-05-08T01:11:21.877Z,6.53
2023-05-08T01:13:53.649Z,6.28
2023-05-08T01:16:30.727Z,6.65
2023-05-08T01:19:06.332Z,6.93
2023-05-08T01:21:40.352Z,7.60
2023-05-08T01:24:32.275Z,7.40
2023-05-08T01:27:26.897Z,6.80
2023-05-08T01:30:21.585Z,7.57
2023-05-08T01:32:57.155Z,7.25
2023-05-08T01:35:29.109Z,8.10
2023-05-08T01:38:00.758Z,7.00
2023-05-08T01:40:35.004Z,7.97
2023-05-08T01:43:09.901Z,7.95
2023-05-08T01:45:41.208Z,7.38
2023-05-08T01:48:13.075Z,7.43
2023-05-08T01:50:46.210Z,7.85
2023-05-08T01:53:18.577Z,8.50
2023-05-08T01:55:53.545Z,7.15
2023-05-08T01:58:22.671Z,7.32
2023-05-08T02:00:51.845Z,7.22
2023-05-08T02:03:22.775Z,8.20
2023-05-08T02:05:52.546Z,7.93
2023-05-08T02:08:24.014Z,8.02
2023-05-08T02:10:53.236Z,8.27
2023-05-08T02:13:23.636Z,7.97
2023-05-08T02:15:55.507Z,7.75
2023-05-08T02:18:27.863Z,7.53
2023-05-08T02:20:57.365Z,7.82
2023-05-08T02:23:27.263Z,8.07
2023-05-08T02:25:56.300Z,8.23
2023-05-08T02:28:25.387Z,8.70
2023-05-08T02:30:54.582Z,8.18
2023-05-08T02:33:25.236Z,8.48
2023-05-08T02:35:55.564Z,8.75
2023-05-08T02:38:25.942Z,8.48
2023-05-08T02:40:57.932Z,8.23
2023-05-08T02:43:27.882Z,8.73
2023-05-08T02:46:07.670Z,9.07
2023-05-08T02:48:44.517Z,8.32
2023-05-08T02:51:21.609Z,8.43
2023-05-08T02:53:54.261Z,7.80
2023-05-08T02:56:33.628Z,7.32
2023-05-08T02:59:11.224Z,7.65
2023-05-08T03:01:45.598Z,8.55
2023-05-08T03:04:23.455Z,9.02
2023-05-08T03:06:55.353Z,8.93
2023-05-08T03:09:27.946Z,8.68
2023-05-08T03:12:03.639Z,8.43
2023-05-08T03:14:33.872Z,8.57
2023-05-08T03:17:04.196Z,9.10
2023-05-08T03:19:35.707Z,9.63
2023-05-08T03:22:08.491Z,9.25
2023-05-08T03:24:38.566Z,8.55
2023-05-08T03:27:08.690Z,8.27
2023-05-08T03:29:37.794Z,8.70
2023-05-08T03:32:07.182Z,8.70
2023-05-08T03:34:36.928Z,8.98
2023-05-08T03:37:06.849Z,9.10
2023-05-08T03:39:34.988Z,8.95
2023-05-08T03:42:03.617Z,8.80
2023-05-08T03:44:33.492Z,8.18
2023-05-08T03:47:02.833Z,8.98
2023-05-08T03:49:32.404Z,8.20
2023-05-08T03:52:01.694Z,8.75
2023-05-08T03:54:39.308Z,8.73
2023-05-08T03:57:09.278Z,8.52
2023-05-08T03:59:44.275Z,8.27
2023-05-08T04:02:22.553Z,8.85
2023-05-08T04:04:59.186Z,7.97
2023-05-08T04:07:30.748Z,9.40
2023-05-08T04:10:06.255Z,8.73
2023-05-08T04:12:42.242Z,8.05
2023-05-08T04:15:13.386Z,8.30
2023-05-08T04:17:44.858Z,8.00
2023-05-08T04:20:20.030Z,8.00
2023-05-08T04:22:49.365Z,6.82
2023-05-08T04:25:22.262Z,6.97
2023-05-08T04:27:52.660Z,7.15
2023-05-08T04:30:22.494Z,7.45
2023-05-08T04:32:53.596Z,7.32
2023-05-08T04:35:21.825Z,6.93
2023-05-08T04:37:50.424Z,7.40
2023-05-08T04:40:21.569Z,7.03
2023-05-08T04:42:49.921Z,6.65
2023-05-08T04:45:19.580Z,7.00
2023-05-08T04:47:48.047Z,6.68
2023-05-08T04:50:16.576Z,6.70
2023-05-08T04:52:44.850Z,6.95
2023-05-08T04:55:13.487Z,6.65
2023-05-08T04:57:44.569Z,6.57
2023-05-08T05:00:14.946Z,6.68
2023-05-08T05:02:43.255Z,6.78
2023-05-08T05:05:11.815Z,6.30
2023-05-08T05:07:40.638Z,6.57
2023-05-08T05:10:10.409Z,6.07
2023-05-08T05:12:39.626Z,6.18
2023-05-08T05:15:11.604Z,6.60
2023-05-08T05:17:40.688Z,6.88
2023-05-08T05:20:09.974Z,6.13
2023-05-08T05:22:38.704Z,5.95
2023-05-08T05:25:07.669Z,5.80
2023-05-08T05:27:37.250Z,5.97
2023-05-08T05:30:07.035Z,5.03
2023-05-08T05:32:36.378Z,5.28
2023-05-08T05:35:04.695Z,5.78
2023-05-08T05:37:33.264Z,5.95
2023-05-08T05:40:01.327Z,6.22
2023-05-08T05:42:29.514Z,5.65
2023-05-08T05:44:57.750Z,5.45
2023-05-08T05:47:25.978Z,5.47
2023-05-08T05:49:55.770Z,5.38
2023-05-08T05:52:23.775Z,5.63
2023-05-08T05:54:52.454Z,6.03
2023-05-08T05:57:21.647Z,4.93
2023-05-08T05:59:49.690Z,4.85
2023-05-08T06:02:20.068Z,5.30
2023-05-08T06:04:50.366Z,4.90
2023-05-08T06:07:22.646Z,4.70
2023-05-08T06:09:55.644Z,5.05
2023-05-08T06:12:25.532Z,4.22
2023-05-08T06:14:55.749Z,4.18
2023-05-08T06:17:24.619Z,4.50
2023-05-08T06:19:59.109Z,4.32
2023-05-08T06:22:30.328Z,4.72
2023-05-08T06:24:58.920Z,4.20
2023-05-08T06:27:27.257Z,3.90
2023-05-08T06:29:55.515Z,4.15
2023-05-08T06:32:23.651Z,4.22
2023-05-08T06:34:51.858Z,3.58
2023-05-08T06:37:21.157Z,4.10
2023-05-08T06:40:00.345Z,3.15
2023-05-08T06:42:39.293Z,3.88
2023-05-08T06:45:08.805Z,3.45
2023-05-08T06:47:38.409Z,3.63
2023-05-08T06:50:08.010Z,3.55
2023-05-08T06:52:36.178Z,3.05
2023-05-08T06:55:06.903Z,2.80
2023-05-08T06:57:34.943Z,2.95
2023-05-08T07:00:03.250Z,2.92
2023-05-08T07:02:31.690Z,2.63
2023-05-08T07:04:59.830Z,2.90
2023-05-08T07:07:29.210Z,2.70
2023-05-08T07:09:57.452Z,2.78
2023-05-08T07:12:27.054Z,2.72
2023-05-08T07:14:57.263Z,2.35
2023-05-08T07:17:29.540Z,2.58
2023-05-08T07:19:58.062Z,2.20
2023-05-08T07:22:26.519Z,2.85
2023-05-08T07:24:54.776Z,2.30
2023-05-08T07:27:23.477Z,2.45
2023-05-08T07:29:53.840Z,2.40
2023-05-08T07:32:21.966Z,2.10
2023-05-08T07:34:50.261Z,2.20
2023-05-08T07:37:20.654Z,2.40
2023-05-08T07:39:48.888Z,2.28
2023-05-08T07:42:18.209Z,2.15
2023-05-08T07:44:54.311Z,2.30
2023-05-08T07:47:24.860Z,2.30
2023-05-08T07:49:52.946Z,2.28
2023-05-08T07:52:23.917Z,2.85
2023-05-08T07:54:52.204Z,2.20
2023-05-08T07:57:26.197Z,2.75
2023-05-08T07:59:54.263Z,2.35
2023-05-08T08:02:27.234Z,2.53
2023-05-08T08:04:55.832Z,2.70
2023-05-08T08:07:23.992Z,2.47
2023-05-08T08:09:52.723Z,2.25
2023-05-08T08:12:21.568Z,2.50
2023-05-08T08:14:49.862Z,2.58
2023-05-08T08:17:18.341Z,2.58
2023-05-08T08:19:48.039Z,2.40
2023-05-08T08:22:17.303Z,2.58
2023-05-08T08:24:47.978Z,2.20
2023-05-08T08:27:19.349Z,2.30
2023-05-08T08:29:47.782Z,1.93
2023-05-08T08:32:15.870Z,2.17
2023-05-08T08:34:44.394Z,2.47
2023-05-08T08:37:14.237Z,2.17
2023-05-08T08:39:42.399Z,2.40
2023-05-08T08:42:10.665Z,2.45
2023-05-08T08:44:40.062Z,2.30
2023-05-08T08:47:11.290Z,2.70
2023-05-08T08:49:49.245Z,2.50
2023-05-08T08:52:24.133Z,2.40
2023-05-08T08:54:53.744Z,2.47
2023-05-08T08:57:22.829Z,2.30
2023-05-08T08:59:52.377Z,2.40
2023-05-08T09:02:21.725Z,2.55
2023-05-08T09:04:52.786Z,2.08
2023-05-08T09:07:22.148Z,2.38
2023-05-08T09:09:51.129Z,1.92
2023-05-08T09:12:19.228Z,2.65
2023-05-08T09:14:47.492Z,2.38
2023-05-08T09:17:16.358Z,1.85
2023-05-08T09:19:46.244Z,1.92
2023-05-08T09:22:16.875Z,2.28
2023-05-08T09:25:00.182Z,2.22
2023-05-08T09:27:29.829Z,2.42
2023-05-08T09:30:03.521Z,2.20
2023-05-08T09:32:33.192Z,2.28
2023-05-08T09:35:02.438Z,2.30
2023-05-08T09:37:32.060Z,2.50
2023-05-08T09:40:32.068Z,2.35
2023-05-08T09:43:14.182Z,2.47
2023-05-08T09:45:42.811Z,2.22
2023-05-08T09:48:13.040Z,2.65
2023-05-08T09:50:43.636Z,2.22
2023-05-08T09:53:11.985Z,2.40
2023-05-08T09:55:51.303Z,2.28
2023-05-08T09:58:20.471Z,2.80
2023-05-08T10:00:49.228Z,2.47
2023-05-08T10:03:17.340Z,1.90
2023-05-08T10:05:48.047Z,1.80
2023-05-08T10:08:22.743Z,2.22
2023-05-08T10:10:53.953Z,2.22
2023-05-08T10:13:22.625Z,3.10
2023-05-08T10:15:54.580Z,2.25
2023-05-08T10:18:26.085Z,2.00
2023-05-08T10:20:56.855Z,1.73
2023-05-08T10:23:27.330Z,2.13
2023-05-08T10:25:57.933Z,2.15
2023-05-08T10:28:33.475Z,1.75
2023-05-08T10:31:05.484Z,2.03
2023-05-08T10:33:35.435Z,2.08
2023-05-08T10:36:04.947Z,2.25
2023-05-08T10:38:35.561Z,2.42
2023-05-08T10:41:05.835Z,2.15
2023-05-08T10:43:35.222Z,2.25
2023-05-08T10:46:07.051Z,1.83
2023-05-08T10:48:43.965Z,2.10
2023-05-08T10:51:18.886Z,1.70
2023-05-08T10:53:52.769Z,1.90
2023-05-08T10:56:28.366Z,2.28
2023-05-08T10:58:57.473Z,2.15
2023-05-08T11:01:26.973Z,2.15
2023-05-08T11:03:56.754Z,2.38
2023-05-08T11:06:46.927Z,2.25
2023-05-08T11:09:23.236Z,2.20
2023-05-08T11:12:05.400Z,2.20
2023-05-08T11:14:34.936Z,2.35
2023-05-08T11:17:10.716Z,2.13
2023-05-08T11:19:40.128Z,2.22
2023-05-08T11:22:23.945Z,2.03
2023-05-08T11:24:55.633Z,1.90
2023-05-08T11:27:42.963Z,1.92
2023-05-08T11:30:28.714Z,1.63
2023-05-08T11:33:02.643Z,2.03
2023-05-08T11:35:48.552Z,2.50
2023-05-08T11:38:18.624Z,1.67
2023-05-08T11:40:54.021Z,1.65
2023-05-08T11:43:51.688Z,2.03
2023-05-08T11:46:23.019Z,1.90
2023-05-08T11:49:00.040Z,1.40
2023-05-08T11:51:32.767Z,1.85
2023-05-08T11:54:02.650Z,1.88
2023-05-08T11:56:32.046Z,1.77
2023-05-08T11:59:05.628Z,1.80
2023-05-08T12:01:34.212Z,1.98
2023-05-08T12:04:03.539Z,2.00
2023-05-08T12:06:33.105Z,1.80
2023-05-08T12:09:04.949Z,2.00
2023-05-08T12:11:33.089Z,2.08
2023-05-08T12:14:01.249Z,1.98
2023-05-08T12:16:31.232Z,2.28
2023-05-08T12:18:59.606Z,1.67
2023-05-08T12:21:29.510Z,2.40
2023-05-08T12:23:58.745Z,2.13
2023-05-08T12:26:27.731Z,1.92
2023-05-08T12:28:57.094Z,1.55
2023-05-08T12:31:27.091Z,1.48
2023-05-08T12:33:57.573Z,1.52
2023-05-08T12:36:26.709Z,2.03
2023-05-08T12:38:54.989Z,1.83
2023-05-08T12:41:26.342Z,1.80
2023-05-08T12:43:57.206Z,1.90
2023-05-08T12:46:29.618Z,1.85
2023-05-08T12:49:07.288Z,1.80
2023-05-08T12:51:35.505Z,1.75
2023-05-08T12:54:04.070Z,1.88
2023-05-08T12:56:32.354Z,1.60
2023-05-08T12:59:02.224Z,1.40
2023-05-08T13:01:30.725Z,1.70
2023-05-08T13:04:02.999Z,1.70
2023-05-08T13:06:37.813Z,1.70
2023-05-08T13:09:08.156Z,1.70
2023-05-08T13:11:39.867Z,2.85
2023-05-08T13:14:08.776Z,1.60
2023-05-08T13:16:43.870Z,1.90
2023-05-08T13:19:12.113Z,1.60
2023-05-08T13:21:41.985Z,1.55
2023-05-08T13:24:09.971Z,1.67
2023-05-08T13:26:40.587Z,1.70
2023-05-08T13:29:08.907Z,2.05
2023-05-08T13:31:39.312Z,1.92
2023-05-08T13:34:07.399Z,1.58
2023-05-08T13:36:35.624Z,1.40
2023-05-08T13:39:05.754Z,1.42
2023-05-08T13:41:57.471Z,1.77
2023-05-08T13:44:49.407Z,1.70
2023-05-08T13:47:18.859Z,1.70
2023-05-08T13:49:50.904Z,1.70
2023-05-08T13:52:22.518Z,1.67
2023-05-08T13:54:56.152Z,1.80
2023-05-08T13:57:24.588Z,1.70
2023-05-08T14:00:00.047Z,1.50
2023-05-08T14:02:32.088Z,1.80
2023-05-08T14:05:22.543Z,1.73
2023-05-08T14:07:51.169Z,1.73
2023-05-08T14:10:20.998Z,1.77
2023-05-08T14:12:56.027Z,1.80
2023-05-08T14:15:29.165Z,1.67
2023-05-08T14:18:07.176Z,1.80
2023-05-08T14:20:48.957Z,1.58
2023-05-08T14:23:20.416Z,1.80
2023-05-08T14:25:49.996Z,1.33
2023-05-08T14:28:18.593Z,1.60
2023-05-08T14:30:47.616Z,1.70
2023-05-08T14:33:18.657Z,1.90
2023-05-08T14:35:48.418Z,1.77
2023-05-08T14:38:16.870Z,1.58
2023-05-08T14:40:45.918Z,1.65
2023-05-08T14:43:28.004Z,2.42
2023-05-08T14:45:58.326Z,1.88
2023-05-08T14:48:27.430Z,1.50
2023-05-08T14:50:55.758Z,1.50
2023-05-08T14:53:25.259Z,1.90
2023-05-08T14:55:54.904Z,2.10
2023-05-08T14:58:27.678Z,1.65
2023-05-08T15:00:55.823Z,2.00
2023-05-08T15:03:24.228Z,1.55
2023-05-08T15:05:58.689Z,1.77
2023-05-08T15:08:29.737Z,2.13
2023-05-08T15:10:59.339Z,1.60
2023-05-08T15:13:32.032Z,1.85
2023-05-08T15:16:00.686Z,1.67
2023-05-08T15:18:29.529Z,2.05
2023-05-08T15:20:59.950Z,2.05
2023-05-08T15:23:28.344Z,1.77
2023-05-08T15:25:57.090Z,1.60
2023-05-08T15:28:25.335Z,1.85
2023-05-08T15:30:58.562Z,1.83
2023-05-08T15:33:28.856Z,1.45
2023-05-08T15:35:58.780Z,1.83
2023-05-08T15:38:27.677Z,1.40
2023-05-08T15:40:56.836Z,1.98
2023-05-08T15:43:28.164Z,1.73
2023-05-08T15:45:58.340Z,1.42
2023-05-08T15:48:35.805Z,2.15
2023-05-08T15:51:04.315Z,1.90
2023-05-08T15:53:34.299Z,2.03
2023-05-08T15:56:05.121Z,1.80
2023-05-08T15:58:35.168Z,2.05
2023-05-08T16:01:06.134Z,2.03
2023-05-08T16:03:35.616Z,2.38
2023-05-08T16:06:03.992Z,2.35
2023-05-08T16:08:32.720Z,2.17
2023-05-08T16:11:01.424Z,1.95
2023-05-08T16:13:31.199Z,2.85
2023-05-08T16:16:05.471Z,2.38
2023-05-08T16:18:36.351Z,2.20
2023-05-08T16:21:09.766Z,1.65
2023-05-08T16:23:38.440Z,1.92
2023-05-08T16:26:07.358Z,2.10
2023-05-08T16:28:35.861Z,2.40
2023-05-08T16:31:07.701Z,1.98
2023-05-08T16:33:35.947Z,2.10
2023-05-08T16:36:08.036Z,2.10
2023-05-08T16:38:39.383Z,2.25
2023-05-08T16:41:10.260Z,1.75
2023-05-08T16:43:38.841Z,1.88
2023-05-08T16:46:11.376Z,2.33
2023-05-08T16:48:39.742Z,2.25
2023-05-08T16:51:08.162Z,1.92
2023-05-08T16:53:36.481Z,2.40
2023-05-08T16:56:06.697Z,2.33
2023-05-08T16:58:43.214Z,1.88
2023-05-08T17:01:13.102Z,2.10
2023-05-08T17:03:50.825Z,2.30
2023-05-08T17:06:20.725Z,2.20
2023-05-08T17:08:51.775Z,2.05
2023-05-08T17:11:21.917Z,2.03
2023-05-08T17:13:52.161Z,2.08
2023-05-08T17:16:24.941Z,2.25
2023-05-08T17:18:57.720Z,2.20
2023-05-08T17:21:26.144Z,2.17
2023-05-08T17:23:54.498Z,2.45
2023-05-08T17:26:25.405Z,2.40
2023-05-08T17:28:55.525Z,2.40
2023-05-08T17:31:26.041Z,2.15
2023-05-08T17:34:01.500Z,2.15
2023-05-08T17:36:29.925Z,2.08
2023-05-08T17:38:58.274Z,2.55
2023-05-08T17:41:26.915Z,2.20
2023-05-08T17:43:56.009Z,2.50
2023-05-08T17:46:26.222Z,2.47
2023-05-08T17:48:55.737Z,2.38
2023-05-08T17:51:24.972Z,2.42
2023-05-08T17:53:54.922Z,2.10
2023-05-08T17:56:23.511Z,2.33
2023-05-08T17:58:53.084Z,2.22
2023-05-08T18:01:21.810Z,2.20
2023-05-08T18:03:51.846Z,2.25
2023-05-08T18:06:22.158Z,2.30
2023-05-08T18:08:50.789Z,2.00
2023-05-08T18:11:27.620Z,1.88
2023-05-08T18:13:58.501Z,2.40
2023-05-08T18:16:26.622Z,2.47
2023-05-08T18:19:07.722Z,2.17
2023-05-08T18:21:38.766Z,1.48
2023-05-08T18:24:11.172Z,2.13
2023-05-08T18:26:40.190Z,1.77
2023-05-08T18:29:10.267Z,2.80
2023-05-08T18:31:38.667Z,1.90
2023-05-08T18:34:10.076Z,2.42
2023-05-08T18:36:54.196Z,2.28
2023-05-08T18:39:24.485Z,2.33
2023-05-08T18:41:52.782Z,2.60
2023-05-08T18:44:20.882Z,2.42
2023-05-08T18:46:49.359Z,2.17
2023-05-08T18:49:19.086Z,2.20
2023-05-08T18:51:49.501Z,2.50
2023-05-08T18:54:17.731Z,2.50
2023-05-08T18:56:46.036Z,2.40
2023-05-08T18:59:14.022Z,2.58
2023-05-08T19:01:44.070Z,2.70
2023-05-08T19:04:26.557Z,2.17
2023-05-08T19:06:56.772Z,2.33
2023-05-08T19:09:27.941Z,2.20
2023-05-08T19:11:56.290Z,2.83
2023-05-08T19:14:25.546Z,2.38
2023-05-08T19:16:58.289Z,3.25
2023-05-08T19:19:27.682Z,2.40
2023-05-08T19:22:00.560Z,2.83
2023-05-08T19:24:31.962Z,2.75
2023-05-08T19:27:00.197Z,2.28
2023-05-08T19:29:28.303Z,2.75
2023-05-08T19:31:57.727Z,2.20
2023-05-08T19:34:26.194Z,2.50
2023-05-08T19:36:54.337Z,2.55
2023-05-08T19:39:23.880Z,2.63
2023-05-08T19:41:53.116Z,2.40
2023-05-08T19:44:26.359Z,2.85
2023-05-08T19:46:54.952Z,3.03
2023-05-08T19:49:24.589Z,2.20
2023-05-08T19:51:53.279Z,3.13
2023-05-08T19:54:24.091Z,2.75
2023-05-08T19:56:52.575Z,2.83
2023-05-08T19:59:20.938Z,2.65
2023-05-08T20:01:50.345Z,2.83
2023-05-08T20:04:19.804Z,3.22
2023-05-08T20:06:48.187Z,2.47
2023-05-08T20:09:17.218Z,2.78
2023-05-08T20:11:47.185Z,2.53
2023-05-08T20:14:15.839Z,2.90
2023-05-08T20:16:44.532Z,2.70
2023-05-08T20:19:12.905Z,3.42
2023-05-08T20:21:46.074Z,2.72
2023-05-08T20:24:15.184Z,2.70
2023-05-08T20:26:43.469Z,2.50
2023-05-08T20:29:13.084Z,2.70
2023-05-08T20:31:42.453Z,2.63
2023-05-08T20:34:10.929Z,3.13
2023-05-08T20:36:39.639Z,2.85
2023-05-08T20:39:09.238Z,2.92
2023-05-08T20:41:41.361Z,3.58
2023-05-08T20:44:12.536Z,3.15
2023-05-08T20:46:44.574Z,3.15
2023-05-08T20:49:15.284Z,3.58
2023-05-08T20:51:43.335Z,2.97
2023-05-08T20:54:11.426Z,2.63
2023-05-08T20:56:40.967Z,3.00
2023-05-08T20:59:09.598Z,3.60
2023-05-08T21:01:39.202Z,3.20
2023-05-08T21:04:09.225Z,3.70
2023-05-08T21:06:37.898Z,3.17
2023-05-08T21:09:07.282Z,3.17
2023-05-08T21:11:35.348Z,3.40
2023-05-08T21:14:03.500Z,3.28
2023-05-08T21:16:31.956Z,3.33
2023-05-08T21:19:00.076Z,3.17
2023-05-08T21:21:31.766Z,3.38
2023-05-08T21:24:02.018Z,3.53
2023-05-08T21:26:30.281Z,3.75
2023-05-08T21:29:00.164Z,3.22
2023-05-08T21:31:28.898Z,3.60
2023-05-08T21:33:57.608Z,2.85
2023-05-08T21:36:25.822Z,3.17
2023-05-08T21:38:56.726Z,3.67
2023-05-08T21:41:25.125Z,3.75
2023-05-08T21:43:53.282Z,3.92
2023-05-08T21:46:21.847Z,3.88
2023-05-08T21:48:56.593Z,4.10
2023-05-08T21:51:24.932Z,3.75
2023-05-08T21:53:54.696Z,3.45
2023-05-08T21:56:24.184Z,3.65
2023-05-08T21:58:52.937Z,3.78
2023-05-08T22:01:22.077Z,4.38
2023-05-08T22:03:50.778Z,3.58
2023-05-08T22:06:19.118Z,3.97
2023-05-08T22:08:47.101Z,3.50
2023-05-08T22:11:16.635Z,3.88
2023-05-08T22:13:46.497Z,3.78
2023-05-08T22:16:15.562Z,4.25
2023-05-08T22:18:44.121Z,4.00
2023-05-08T22:21:15.025Z,4.00
2023-05-08T22:23:46.778Z,4.20
2023-05-08T22:26:14.787Z,4.13
2023-05-08T22:28:43.570Z,4.07
2023-05-08T22:31:14.999Z,4.00
2023-05-08T22:33:43.220Z,4.20
2023-05-08T22:36:12.900Z,4.13
2023-05-08T22:38:41.944Z,4.40
2023-05-08T22:41:10.941Z,4.65
2023-05-08T22:43:40.690Z,4.15
2023-05-08T22:46:09.221Z,4.55
2023-05-08T22:48:39.002Z,4.75
2023-05-08T22:51:10.510Z,4.50
2023-05-08T22:53:38.549Z,4.33
2023-05-08T22:56:08.030Z,4.18
2023-05-08T22:58:36.090Z,4.53
2023-05-08T23:01:04.633Z,4.00
2023-05-08T23:03:32.875Z,4.43
2023-05-08T23:06:03.167Z,4.22
2023-05-08T23:08:31.563Z,4.32
2023-05-08T23:11:01.186Z,4.22
2023-05-08T23:13:31.944Z,5.03
2023-05-08T23:16:00.151Z,4.13
2023-05-08T23:18:28.264Z,4.30
2023-05-08T23:20:56.317Z,4.45
2023-05-08T23:23:26.232Z,4.60
2023-05-08T23:25:54.620Z,4.25
2023-05-08T23:28:22.919Z,4.68
2023-05-08T23:30:51.158Z,5.07
2023-05-08T23:33:19.961Z,4.72
2023-05-08T23:35:48.334Z,5.00
2023-05-08T23:38:16.539Z,4.30
2023-05-08T23:40:47.507Z,4.55
2023-05-08T23:43:16.226Z,5.03
2023-05-08T23:45:44.438Z,4.30
2023-05-08T23:48:13.470Z,4.65
2023-05-08T23:50:42.280Z,4.25
2023-05-08T23:53:10.926Z,4.60
2023-05-08T23:55:39.376Z,4.68
2023-05-08T23:58:08.676Z,4.85
